Time;durP1;ratioP1;P1;durP2;ratioP2;P2;SDS_P1;SDS_P2;PMS_P1;PMS_P2;Temp;Humidity;BMP_temperature;BMP_pressure;BME280_temperature;BME280_humidity;BME280_pressure;Samples;Min_cycle;Max_cycle;Signal;HPM_P1;HPM_P2
2023/10/20 00:08:19;;;;;;;1999.90;999.90;;;;;;;13.16;100.00;94903.25;18628708;31;20462;-58
2023/10/20 00:18:23;;;;;;;1999.90;999.90;;;;;;;13.14;100.00;94865.63;18628102;31;20052;-58
2023/10/20 00:28:40;;;;;;;1999.90;999.90;;;;;;;13.01;100.00;94847.91;18613846;31;20112;-58
2023/10/20 00:38:43;;;;;;;1999.90;999.90;;;;;;;13.05;100.00;94854.19;18612521;31;20100;-58
2023/10/20 00:48:45;;;;;;;1999.90;999.90;;;;;;;13.02;100.00;94825.09;18626545;31;20052;-58
2023/10/20 00:58:49;;;;;;;1999.90;999.90;;;;;;;13.02;100.00;94834.00;18626099;31;20060;-58
2023/10/20 01:08:56;;;;;;;1999.90;999.90;;;;;;;13.00;100.00;94797.53;18625703;31;20112;-58
2023/10/20 01:19:00;;;;;;;1999.90;999.90;;;;;;;13.00;100.00;94743.28;18611311;31;20389;-58
2023/10/20 01:29:05;;;;;;;1999.90;999.90;;;;;;;13.12;100.00;94690.81;18622309;31;20044;-58
2023/10/20 01:39:08;;;;;;;1999.90;999.90;;;;;;;13.19;100.00;94699.84;18623576;31;20040;-58
2023/10/20 01:49:11;;;;;;;1999.90;999.90;;;;;;;13.17;100.00;94647.09;18616600;31;20120;-58
2023/10/20 01:59:15;;;;;;;1999.90;999.90;;;;;;;13.09;100.00;94610.97;18636934;31;20079;-58
2023/10/20 02:09:21;;;;;;;1999.90;999.90;;;;;;;13.04;100.00;94552.34;18636632;31;20352;-58
2023/10/20 02:19:24;;;;;;;1999.90;999.90;;;;;;;12.92;100.00;94516.53;18635917;31;20429;-58
2023/10/20 02:29:27;;;;;;;1999.90;999.90;;;;;;;12.93;100.00;94515.38;18635109;31;20127;-58
2023/10/20 02:39:29;;;;;;;1999.90;999.90;;;;;;;12.79;100.00;94461.72;18634520;31;20052;-58
2023/10/20 02:49:32;;;;;;;1999.90;999.90;;;;;;;12.80;100.00;94428.81;18619684;31;20459;-58
2023/10/20 02:59:34;;;;;;;1999.90;999.90;;;;;;;12.79;100.00;94402.84;18619103;31;20067;-58
2023/10/20 03:09:37;;;;;;;1999.90;999.90;;;;;;;12.71;100.00;94391.13;18632935;31;20431;-58
2023/10/20 03:19:40;;;;;;;1999.90;999.90;;;;;;;12.60;100.00;94378.56;18631951;31;20045;-58
2023/10/20 03:29:42;;;;;;;1999.90;999.90;;;;;;;12.58;100.00;94370.81;18631313;31;20052;-58
2023/10/20 03:39:45;;;;;;;1999.90;999.90;;;;;;;12.61;100.00;94344.91;18623745;31;20080;-58
2023/10/20 03:49:50;;;;;;;1999.90;999.90;;;;;;;12.58;100.00;94273.25;18629609;31;20052;-58
2023/10/20 03:59:53;;;;;;;1999.90;999.90;;;;;;;12.74;100.00;94226.22;18629757;31;20052;-58
2023/10/20 04:09:57;;;;;;;1999.90;999.90;;;;;;;12.72;100.00;94223.87;18614643;31;20058;-58
2023/10/20 04:19:59;;;;;;;1999.90;999.90;;;;;;;12.77;100.00;94185.59;18628156;31;20053;-58
2023/10/20 04:51:18;;;;;;;1999.90;999.90;;;;;;;12.82;100.00;94108.59;18611970;31;20082;-58
2023/10/20 05:01:27;;;;;;;1999.90;999.90;;;;;;;12.82;100.00;94076.81;18614617;31;20095;-58
2023/10/20 05:11:29;;;;;;;1999.90;999.90;;;;;;;12.92;100.00;94064.53;18612382;31;20044;-58
2023/10/20 05:21:38;;;;;;;1999.90;999.90;;;;;;;12.99;100.00;94059.19;18625223;31;20068;-59
2023/10/20 05:31:40;;;;;;;1999.90;999.90;;;;;;;12.93;100.00;94076.16;18624990;31;20040;-58
2023/10/20 05:41:43;;;;;;;1999.90;999.90;;;;;;;12.96;100.00;94054.50;18610504;31;20074;-58
2023/10/20 05:51:49;;;;;;;1999.90;999.90;;;;;;;12.99;100.00;94070.03;18610167;31;20040;-58
2023/10/20 06:01:52;;;;;;;1999.90;999.90;;;;;;;12.98;100.00;94083.97;18609939;31;20071;-59
2023/10/20 06:11:55;;;;;;;1999.90;999.90;;;;;;;13.00;100.00;94116.91;18629864;31;20060;-58
2023/10/20 06:22:00;;;;;;;1999.90;999.90;;;;;;;13.02;100.00;94199.44;18635634;31;20056;-58
2023/10/20 06:42:35;;;;;;;1999.90;999.90;;;;;;;13.03;100.00;94238.16;18429579;32;20073;-59
2023/10/20 06:52:38;;;;;;;1999.90;999.90;;;;;;;13.09;100.00;94263.81;18416586;32;20076;-59
2023/10/20 07:02:42;;;;;;;1999.90;999.90;;;;;;;13.10;100.00;94311.50;18428865;32;20814;-58
2023/10/20 07:12:45;;;;;;;1999.90;999.90;;;;;;;13.10;100.00;94351.38;18463486;32;20044;-59
2023/10/20 07:22:50;;;;;;;1999.90;999.90;;;;;;;13.14;100.00;94350.28;18565702;31;20453;-58
2023/10/20 07:32:54;;;;;;;1999.90;999.90;;;;;;;13.25;100.00;94357.75;18566176;31;20444;-59
2023/10/20 07:42:59;;;;;;;1999.90;999.90;;;;;;;13.40;100.00;94364.94;18593684;31;20079;-59
2023/10/20 07:53:03;;;;;;;1999.90;999.90;;;;;;;13.50;100.00;94380.59;18629939;31;20044;-59
2023/10/20 08:03:11;;;;;;;1999.90;999.90;;;;;;;13.60;100.00;94390.00;18614824;31;20109;-59
2023/10/20 08:13:14;;;;;;;1999.90;999.90;;;;;;;13.68;100.00;94407.94;18615199;31;20079;-59
2023/10/20 08:23:18;;;;;;;1999.90;999.90;;;;;;;13.69;100.00;94433.94;18628388;31;20080;-58
2023/10/20 08:33:21;;;;;;;1999.90;999.90;;;;;;;13.71;100.00;94455.28;18627359;31;20056;-59
2023/10/20 08:43:25;;;;;;;1999.90;999.90;;;;;;;13.72;100.00;94463.06;18626920;31;20099;-59
2023/10/20 08:53:34;;;;;;;1999.90;999.90;;;;;;;13.80;100.00;94493.81;18626431;31;20052;-59
2023/10/20 09:03:40;;;;;;;1999.90;999.90;;;;;;;13.92;100.00;94516.44;18621165;31;20166;-58
2023/10/20 09:13:47;;;;;;;1999.90;999.90;;;;;;;13.97;100.00;94535.91;18624825;31;20056;-59
2023/10/20 09:23:55;;;;;;;1999.90;999.90;;;;;;;14.08;100.00;94563.19;18610873;31;20057;-58
2023/10/20 09:34:09;;;;;;;1999.90;999.90;;;;;;;14.14;100.00;94580.75;18625026;31;20334;-59
2023/10/20 09:44:34;;;;;;;1999.90;999.90;;;;;;;14.21;100.00;94596.34;18627430;31;20097;-59
2023/10/20 09:54:39;;;;;;;1999.90;999.90;;;;;;;14.11;100.00;94614.06;18637645;31;20097;-59
2023/10/20 10:04:43;;;;;;;1999.90;999.90;;;;;;;13.85;100.00;94604.81;18636762;31;20089;-59
2023/10/20 10:14:57;;;;;;;1999.90;999.90;;;;;;;13.69;100.00;94634.03;18622317;31;20048;-59
2023/10/20 10:25:00;;;;;;;1999.90;999.90;;;;;;;14.00;100.00;94645.75;18635758;31;20097;-59
2023/10/20 10:35:04;;;;;;;1999.90;999.90;;;;;;;14.15;100.00;94657.59;18634867;31;20086;-58
2023/10/20 10:45:27;;;;;;;1999.90;999.90;;;;;;;14.31;100.00;94673.75;18634092;31;20053;-59
2023/10/20 10:55:31;;;;;;;1999.90;999.90;;;;;;;14.36;100.00;94678.84;18626125;31;20087;-58
2023/10/20 11:05:35;;;;;;;1999.90;999.90;;;;;;;14.20;100.00;94673.59;18633109;31;20048;-58
2023/10/20 11:15:40;;;;;;;1999.90;999.90;;;;;;;14.03;100.00;94693.91;18618341;31;20049;-59
2023/10/20 11:25:45;;;;;;;1999.90;999.90;;;;;;;14.02;100.00;94714.09;18617944;31;20442;-59
2023/10/20 11:35:48;;;;;;;1999.90;999.90;;;;;;;13.94;100.00;94709.69;18616703;31;20056;-59
2023/10/20 11:45:51;;;;;;;1999.90;999.90;;;;;;;13.74;100.00;94742.31;18630371;31;20093;-59
2023/10/20 11:55:54;;;;;;;1999.90;999.90;;;;;;;13.69;100.00;94734.47;18615029;31;20056;-59
2023/10/20 12:05:58;;;;;;;1999.90;999.90;;;;;;;13.58;100.00;94719.94;18614530;31;20470;-59
2023/10/20 12:16:08;;;;;;;1999.90;999.90;;;;;;;13.45;100.00;94692.97;18629144;31;20048;-59
2023/10/20 12:26:13;;;;;;;1999.90;999.90;;;;;;;13.57;100.00;94664.88;18601120;31;20452;-59
2023/10/20 12:36:18;;;;;;;1999.90;999.90;;;;;;;13.48;100.00;94648.84;18612987;31;20087;-59
2023/10/20 12:46:22;;;;;;;1999.90;999.90;;;;;;;13.40;100.00;94620.00;18626909;31;20056;-58
2023/10/20 12:56:26;;;;;;;1999.90;999.90;;;;;;;13.16;100.00;94642.84;18612185;31;20071;-58
2023/10/20 13:06:30;;;;;;;1999.90;999.90;;;;;;;12.98;100.00;94727.37;18611911;31;20109;-58
2023/10/20 13:16:43;;;;;;;1999.90;999.90;;;;;;;13.31;100.00;94733.41;18625234;31;20096;-58
2023/10/20 13:26:46;;;;;;;1999.90;999.90;;;;;;;13.33;100.00;94739.25;18611220;31;20061;-58
2023/10/20 13:36:50;;;;;;;1999.90;999.90;;;;;;;13.27;100.00;94741.47;18625118;31;20095;-58
2023/10/20 13:46:53;;;;;;;1999.90;999.90;;;;;;;13.27;100.00;94765.91;18610187;31;20076;-58
2023/10/20 13:56:56;;;;;;;1999.90;999.90;;;;;;;13.28;100.00;94772.09;18624257;31;20454;-58
2023/10/20 14:06:59;;;;;;;1999.90;999.90;;;;;;;13.18;100.00;94765.31;18623912;31;20068;-58
2023/10/20 14:17:06;;;;;;;1999.90;999.90;;;;;;;13.07;100.00;94770.53;18624134;31;20384;-58
2023/10/20 14:27:20;;;;;;;1999.90;999.90;;;;;;;13.13;100.00;94777.25;18623637;31;20083;-58
2023/10/20 14:37:23;;;;;;;1999.90;999.90;;;;;;;13.16;100.00;94762.97;18627704;31;20146;-58
2023/10/20 14:47:26;;;;;;;1999.90;999.90;;;;;;;13.08;100.00;94758.56;18567328;32;20087;-58
2023/10/20 14:57:30;;;;;;;1999.90;999.90;;;;;;;13.02;100.00;94777.03;18568274;31;20048;-58
2023/10/20 15:07:36;;;;;;;1999.90;999.90;;;;;;;13.13;100.00;94798.97;18566491;32;20077;-58
2023/10/20 15:17:39;;;;;;;1999.90;999.90;;;;;;;13.14;100.00;94786.97;18567290;32;20049;-58
2023/10/20 15:27:42;;;;;;;1999.90;999.90;;;;;;;13.11;100.00;94781.47;18565338;32;20075;-58
2023/10/20 15:37:45;;;;;;;1999.90;999.90;;;;;;;13.34;100.00;94808.66;18565715;31;20466;-58
2023/10/20 15:47:49;;;;;;;1999.90;999.90;;;;;;;13.45;100.00;94827.91;18563005;32;20067;-58
2023/10/20 15:57:52;;;;;;;1999.90;999.90;;;;;;;13.29;100.00;94831.47;18564686;31;20079;-58
2023/10/20 16:07:55;;;;;;;1999.90;999.90;;;;;;;13.14;100.00;94824.94;18562842;32;20044;-58
2023/10/20 16:17:58;;;;;;;1999.90;999.90;;;;;;;12.96;100.00;94823.78;18562293;32;20068;-58
2023/10/20 16:28:01;;;;;;;1999.90;999.90;;;;;;;12.62;100.00;94815.28;18561410;32;20067;-58
2023/10/20 16:38:04;;;;;;;1999.90;999.90;;;;;;;12.29;100.00;94813.78;18562643;31;20495;-58
2023/10/20 16:48:07;;;;;;;1999.90;999.90;;;;;;;12.14;100.00;94818.87;18560329;32;20057;-58
2023/10/20 16:58:10;;;;;;;1999.90;999.90;;;;;;;11.94;100.00;94826.09;18559980;32;20697;-58
2023/10/20 17:08:12;;;;;;;1999.90;999.90;;;;;;;11.86;100.00;94830.50;18560724;31;20209;-58
2023/10/20 17:18:15;;;;;;;1999.90;999.90;;;;;;;11.77;100.00;94821.00;18559060;31;20072;-58
2023/10/20 17:28:18;;;;;;;1999.90;999.90;;;;;;;11.75;100.00;94807.81;18560282;31;20064;-58
2023/10/20 17:38:24;;;;;;;1999.90;999.90;;;;;;;11.78;100.00;94817.94;18560041;31;20100;-58
2023/10/20 17:48:27;;;;;;;1999.90;999.90;;;;;;;11.56;100.00;94853.69;18623640;31;20075;-58
2023/10/20 17:58:30;;;;;;;1999.90;999.90;;;;;;;11.39;100.00;94885.31;18610092;31;20061;-58
2023/10/20 18:08:33;;;;;;;1999.90;999.90;;;;;;;11.49;100.00;94882.13;18616991;31;20056;-58
2023/10/20 18:18:37;;;;;;;1999.90;999.90;;;;;;;11.55;100.00;94881.88;18622357;31;20045;-58
2023/10/20 18:28:40;;;;;;;1999.90;999.90;;;;;;;11.56;100.00;94880.75;18635608;31;20084;-58
2023/10/20 18:38:43;;;;;;;1999.90;999.90;;;;;;;11.58;100.00;94878.47;18635151;31;20065;-58
2023/10/20 18:48:48;;;;;;;1999.90;999.90;;;;;;;11.64;100.00;94893.34;18634358;31;20048;-58
2023/10/20 18:58:50;;;;;;;1999.90;999.90;;;;;;;11.74;100.00;94889.34;18619940;31;20053;-58
2023/10/20 19:08:53;;;;;;;1999.90;999.90;;;;;;;11.92;100.00;94908.78;18612023;31;20044;-58
2023/10/20 19:18:56;;;;;;;1999.90;999.90;;;;;;;12.05;100.00;94902.19;18617640;31;20056;-58
2023/10/20 19:29:00;;;;;;;1999.90;999.90;;;;;;;12.07;100.00;94910.75;18631929;31;20072;-59
2023/10/20 19:39:03;;;;;;;1999.90;999.90;;;;;;;12.10;100.00;94937.16;18630878;31;20044;-58
2023/10/20 19:49:06;;;;;;;1999.90;999.90;;;;;;;12.10;100.00;94958.00;18616772;31;20057;-58
2023/10/20 19:59:09;;;;;;;1999.90;999.90;;;;;;;12.10;100.00;94971.56;18627999;31;20398;-58
2023/10/20 20:09:12;;;;;;;1999.90;999.90;;;;;;;12.13;100.00;94979.00;18610370;31;20052;-58
2023/10/20 20:19:15;;;;;;;1999.90;999.90;;;;;;;12.22;100.00;94987.75;18628847;31;20103;-58
2023/10/20 20:29:18;;;;;;;1999.90;999.90;;;;;;;12.35;100.00;94983.06;18627792;31;20116;-58
2023/10/20 20:39:21;;;;;;;1999.90;999.90;;;;;;;12.40;100.00;95001.75;18613343;31;20136;-58
2023/10/20 20:49:24;;;;;;;1999.90;999.90;;;;;;;12.43;100.00;95027.38;18627085;31;20071;-58
2023/10/20 20:59:27;;;;;;;1999.90;999.90;;;;;;;12.51;100.00;95013.69;18626374;31;20082;-58
2023/10/20 21:09:31;;;;;;;1999.90;999.90;;;;;;;12.63;100.00;95022.88;18626043;31;20082;-58
2023/10/20 21:19:34;;;;;;;1999.90;999.90;;;;;;;12.62;100.00;95032.13;18625722;31;20452;-58
2023/10/20 21:29:38;;;;;;;1999.90;999.90;;;;;;;12.65;100.00;95067.47;18625125;31;20064;-58
2023/10/20 21:39:41;;;;;;;1999.90;999.90;;;;;;;12.96;100.00;95063.19;18612357;31;20067;-58
2023/10/20 21:49:44;;;;;;;1999.90;999.90;;;;;;;12.89;100.00;95084.72;18632620;31;20059;-58
2023/10/20 21:59:47;;;;;;;1999.90;999.90;;;;;;;13.13;100.00;95105.50;18622569;31;20064;-58
2023/10/20 22:09:50;;;;;;;1999.90;999.90;;;;;;;13.25;100.00;95139.09;18636722;31;20082;-58
2023/10/20 22:19:55;;;;;;;1999.90;999.90;;;;;;;13.57;100.00;95167.06;18622582;31;20089;-58
2023/10/20 22:29:58;;;;;;;1999.90;999.90;;;;;;;13.52;100.00;95216.97;18635500;31;20137;-58
2023/10/20 22:40:02;;;;;;;1999.90;999.90;;;;;;;13.38;100.00;95219.31;18620635;31;20066;-59
2023/10/20 22:50:05;;;;;;;1999.90;999.90;;;;;;;13.11;100.00;95248.81;18607109;31;20092;-59
2023/10/20 23:00:12;;;;;;;1999.90;999.90;;;;;;;13.02;100.00;95276.09;18606706;31;20429;-59
2023/10/20 23:10:15;;;;;;;1999.90;999.90;;;;;;;12.84;100.00;95299.19;18619094;31;20449;-59
2023/10/20 23:20:18;;;;;;;1999.90;999.90;;;;;;;12.77;100.00;95331.53;18632409;31;20057;-59
2023/10/20 23:30:20;;;;;;;1999.90;999.90;;;;;;;12.64;100.00;95366.78;18631701;31;20048;-59
2023/10/20 23:40:22;;;;;;;1999.90;999.90;;;;;;;12.61;100.00;95391.09;18630915;31;20132;-59
2023/10/20 23:50:25;;;;;;;1999.90;999.90;;;;;;;12.33;100.00;95421.53;18630684;31;20084;-59
